sensor_id;sensor_type;location;lat;lon;timestamp;P1;P4;P2;P0;N10;N4;N25;N1;N05;TS
62702;SPS30;66022;50.448;18.122;2023-02-28T00:01:30;15.98;;15.98;;;;;;;
62702;SPS30;66022;50.448;18.122;2023-02-28T00:05:44;17.29;;17.16;;;;;;;
62702;SPS30;66022;50.448;18.122;2023-02-28T00:09:58;17.29;;17.16;;;;;;;
62702;SPS30;66022;50.448;18.122;2023-02-28T00:14:12;17.29;;17.16;;;;;;;
62702;SPS30;66022;50.448;18.122;2023-02-28T00:18:26;14.57;;14.44;;;;;;;
62702;SPS30;66022;50.448;18.122;2023-02-28T00:22:44;14.57;;14.44;;;;;;;
62702;SPS30;66022;50.448;18.122;2023-02-28T00:26:54;15.76;;14.97;;;;;;;
62702;SPS30;66022;50.448;18.122;2023-02-28T00:31:08;15.76;;14.97;;;;;;;
62702;SPS30;66022;50.448;18.122;2023-02-28T00:35:22;15.76;;14.97;;;;;;;
62702;SPS30;66022;50.448;18.122;2023-02-28T00:39:36;18.33;;17.67;;;;;;;
62702;SPS30;66022;50.448;18.122;2023-02-28T00:43:50;18.33;;17.67;;;;;;;
62702;SPS30;66022;50.448;18.122;2023-02-28T00:48:04;18.91;;18.23;;;;;;;
62702;SPS30;66022;50.448;18.122;2023-02-28T00:52:18;18.91;;18.23;;;;;;;
62702;SPS30;66022;50.448;18.122;2023-02-28T00:56:32;15.93;;15.27;;;;;;;
62702;SPS30;66022;50.448;18.122;2023-02-28T01:00:46;15.93;;15.27;;;;;;;
62702;SPS30;66022;50.448;18.122;2023-02-28T01:05:00;15.93;;15.27;;;;;;;
62702;SPS30;66022;50.448;18.122;2023-02-28T01:09:14;17.92;;16.55;;;;;;;
62702;SPS30;66022;50.448;18.122;2023-02-28T01:13:28;17.92;;16.55;;;;;;;
62702;SPS30;66022;50.448;18.122;2023-02-28T01:17:42;14.06;;13.98;;;;;;;
62702;SPS30;66022;50.448;18.122;2023-02-28T01:21:56;14.06;;13.98;;;;;;;
62702;SPS30;66022;50.448;18.122;2023-02-28T01:26:12;10.94;;10.94;;;;;;;
62702;SPS30;66022;50.448;18.122;2023-02-28T01:30:24;10.94;;10.94;;;;;;;
62702;SPS30;66022;50.448;18.122;2023-02-28T01:34:39;10.94;;10.94;;;;;;;
62702;SPS30;66022;50.448;18.122;2023-02-28T01:38:53;15.17;;14.79;;;;;;;
62702;SPS30;66022;50.448;18.122;2023-02-28T01:47:20;13.70;;13.70;;;;;;;
62702;SPS30;66022;50.448;18.122;2023-02-28T01:51:37;13.70;;13.70;;;;;;;
62702;SPS30;66022;50.448;18.122;2023-02-28T01:55:49;13.99;;13.63;;;;;;;
62702;SPS30;66022;50.448;18.122;2023-02-28T02:00:12;13.99;;13.63;;;;;;;
62702;SPS30;66022;50.448;18.122;2023-02-28T02:04:16;13.99;;13.63;;;;;;;
62702;SPS30;66022;50.448;18.122;2023-02-28T02:08:30;14.69;;14.10;;;;;;;
62702;SPS30;66022;50.448;18.122;2023-02-28T02:17:07;19.21;;18.75;;;;;;;
62702;SPS30;66022;50.448;18.122;2023-02-28T02:25:28;19.21;;18.75;;;;;;;
62702;SPS30;66022;50.448;18.122;2023-02-28T02:38:10;14.45;;13.67;;;;;;;
62702;SPS30;66022;50.448;18.122;2023-02-28T02:42:28;14.45;;13.67;;;;;;;
62702;SPS30;66022;50.448;18.122;2023-02-28T02:46:37;12.00;;11.86;;;;;;;
62702;SPS30;66022;50.448;18.122;2023-02-28T02:50:52;12.00;;11.86;;;;;;;
62702;SPS30;66022;50.448;18.122;2023-02-28T02:55:05;12.00;;11.86;;;;;;;
62702;SPS30;66022;50.448;18.122;2023-02-28T02:59:19;13.83;;13.79;;;;;;;
62702;SPS30;66022;50.448;18.122;2023-02-28T03:03:32;13.83;;13.79;;;;;;;
62702;SPS30;66022;50.448;18.122;2023-02-28T03:07:46;14.51;;14.31;;;;;;;
62702;SPS30;66022;50.448;18.122;2023-02-28T03:12:00;14.51;;14.31;;;;;;;
62702;SPS30;66022;50.448;18.122;2023-02-28T03:24:50;16.05;;16.05;;;;;;;
62702;SPS30;66022;50.448;18.122;2023-02-28T03:33:12;21.51;;20.53;;;;;;;
62702;SPS30;66022;50.448;18.122;2023-02-28T03:37:24;16.58;;15.88;;;;;;;
62702;SPS30;66022;50.448;18.122;2023-02-28T03:41:40;16.58;;15.88;;;;;;;
62702;SPS30;66022;50.448;18.122;2023-02-28T03:45:52;21.18;;20.01;;;;;;;
62702;SPS30;66022;50.448;18.122;2023-02-28T03:50:07;21.18;;20.01;;;;;;;
62702;SPS30;66022;50.448;18.122;2023-02-28T04:02:48;23.18;;21.57;;;;;;;
62702;SPS30;66022;50.448;18.122;2023-02-28T04:07:04;27.62;;24.20;;;;;;;
62702;SPS30;66022;50.448;18.122;2023-02-28T04:11:21;27.62;;24.20;;;;;;;
62702;SPS30;66022;50.448;18.122;2023-02-28T04:15:30;19.76;;19.08;;;;;;;
62702;SPS30;66022;50.448;18.122;2023-02-28T04:19:45;19.76;;19.08;;;;;;;
62702;SPS30;66022;50.448;18.122;2023-02-28T04:23:59;19.76;;19.08;;;;;;;
62702;SPS30;66022;50.448;18.122;2023-02-28T04:28:13;15.77;;15.26;;;;;;;
62702;SPS30;66022;50.448;18.122;2023-02-28T04:32:27;15.77;;15.26;;;;;;;
62702;SPS30;66022;50.448;18.122;2023-02-28T04:36:41;15.13;;15.03;;;;;;;
62702;SPS30;66022;50.448;18.122;2023-02-28T04:40:56;15.13;;15.03;;;;;;;
62702;SPS30;66022;50.448;18.122;2023-02-28T04:45:09;15.13;;15.03;;;;;;;
62702;SPS30;66022;50.448;18.122;2023-02-28T04:49:22;14.53;;13.99;;;;;;;
62702;SPS30;66022;50.448;18.122;2023-02-28T04:53:37;14.53;;13.99;;;;;;;
62702;SPS30;66022;50.448;18.122;2023-02-28T04:57:51;15.04;;14.68;;;;;;;
62702;SPS30;66022;50.448;18.122;2023-02-28T05:02:04;15.04;;14.68;;;;;;;
62702;SPS30;66022;50.448;18.122;2023-02-28T05:06:19;13.75;;13.71;;;;;;;
62702;SPS30;66022;50.448;18.122;2023-02-28T05:10:32;13.75;;13.71;;;;;;;
62702;SPS30;66022;50.448;18.122;2023-02-28T05:14:46;13.75;;13.71;;;;;;;
62702;SPS30;66022;50.448;18.122;2023-02-28T05:19:00;14.28;;14.28;;;;;;;
62702;SPS30;66022;50.448;18.122;2023-02-28T05:23:22;14.28;;14.28;;;;;;;
62702;SPS30;66022;50.448;18.122;2023-02-28T05:27:29;15.58;;14.34;;;;;;;
62702;SPS30;66022;50.448;18.122;2023-02-28T05:31:43;15.58;;14.34;;;;;;;
62702;SPS30;66022;50.448;18.122;2023-02-28T05:35:56;11.79;;11.56;;;;;;;
62702;SPS30;66022;50.448;18.122;2023-02-28T05:40:11;11.79;;11.56;;;;;;;
62702;SPS30;66022;50.448;18.122;2023-02-28T05:44:24;11.79;;11.56;;;;;;;
62702;SPS30;66022;50.448;18.122;2023-02-28T05:48:42;32.54;;27.55;;;;;;;
62702;SPS30;66022;50.448;18.122;2023-02-28T05:52:53;32.54;;27.55;;;;;;;
62702;SPS30;66022;50.448;18.122;2023-02-28T05:57:07;28.15;;24.32;;;;;;;
62702;SPS30;66022;50.448;18.122;2023-02-28T06:05:36;15.18;;14.89;;;;;;;
62702;SPS30;66022;50.448;18.122;2023-02-28T06:09:49;15.18;;14.89;;;;;;;
62702;SPS30;66022;50.448;18.122;2023-02-28T06:14:03;15.18;;14.89;;;;;;;
62702;SPS30;66022;50.448;18.122;2023-02-28T06:18:17;28.13;;24.80;;;;;;;
62702;SPS30;66022;50.448;18.122;2023-02-28T06:22:31;28.13;;24.80;;;;;;;
62702;SPS30;66022;50.448;18.122;2023-02-28T06:26:45;28.72;;23.56;;;;;;;
62702;SPS30;66022;50.448;18.122;2023-02-28T06:30:59;28.72;;23.56;;;;;;;
62702;SPS30;66022;50.448;18.122;2023-02-28T06:35:13;28.72;;23.56;;;;;;;
62702;SPS30;66022;50.448;18.122;2023-02-28T06:39:27;10.31;;10.15;;;;;;;
62702;SPS30;66022;50.448;18.122;2023-02-28T06:43:41;10.31;;10.15;;;;;;;
62702;SPS30;66022;50.448;18.122;2023-02-28T06:47:55;10.92;;10.37;;;;;;;
62702;SPS30;66022;50.448;18.122;2023-02-28T06:52:09;10.92;;10.37;;;;;;;
62702;SPS30;66022;50.448;18.122;2023-02-28T06:56:23;11.75;;10.97;;;;;;;
62702;SPS30;66022;50.448;18.122;2023-02-28T07:00:37;11.75;;10.97;;;;;;;
62702;SPS30;66022;50.448;18.122;2023-02-28T07:04:50;11.75;;10.97;;;;;;;
62702;SPS30;66022;50.448;18.122;2023-02-28T07:09:05;19.02;;17.79;;;;;;;
62702;SPS30;66022;50.448;18.122;2023-02-28T07:13:19;19.02;;17.79;;;;;;;
62702;SPS30;66022;50.448;18.122;2023-02-28T07:17:32;12.39;;12.07;;;;;;;
62702;SPS30;66022;50.448;18.122;2023-02-28T07:21:47;12.39;;12.07;;;;;;;
62702;SPS30;66022;50.448;18.122;2023-02-28T07:26:01;9.40;;9.13;;;;;;;
62702;SPS30;66022;50.448;18.122;2023-02-28T07:30:15;9.40;;9.13;;;;;;;
62702;SPS30;66022;50.448;18.122;2023-02-28T07:34:29;9.40;;9.13;;;;;;;
62702;SPS30;66022;50.448;18.122;2023-02-28T07:38:43;8.25;;8.16;;;;;;;
62702;SPS30;66022;50.448;18.122;2023-02-28T07:42:58;8.25;;8.16;;;;;;;
62702;SPS30;66022;50.448;18.122;2023-02-28T07:47:11;12.19;;11.52;;;;;;;
62702;SPS30;66022;50.448;18.122;2023-02-28T07:51:25;12.19;;11.52;;;;;;;
62702;SPS30;66022;50.448;18.122;2023-02-28T07:55:39;8.86;;8.67;;;;;;;
62702;SPS30;66022;50.448;18.122;2023-02-28T07:59:53;8.86;;8.67;;;;;;;
62702;SPS30;66022;50.448;18.122;2023-02-28T08:04:07;8.86;;8.67;;;;;;;
62702;SPS30;66022;50.448;18.122;2023-02-28T08:08:21;13.82;;12.85;;;;;;;
62702;SPS30;66022;50.448;18.122;2023-02-28T08:12:35;13.82;;12.85;;;;;;;
62702;SPS30;66022;50.448;18.122;2023-02-28T08:16:49;12.63;;11.18;;;;;;;
62702;SPS30;66022;50.448;18.122;2023-02-28T08:21:09;12.63;;11.18;;;;;;;
62702;SPS30;66022;50.448;18.122;2023-02-28T08:25:17;12.63;;11.18;;;;;;;
62702;SPS30;66022;50.448;18.122;2023-02-28T08:29:31;9.24;;8.75;;;;;;;
62702;SPS30;66022;50.448;18.122;2023-02-28T08:33:45;9.24;;8.75;;;;;;;
62702;SPS30;66022;50.448;18.122;2023-02-28T08:37:59;11.40;;10.26;;;;;;;
62702;SPS30;66022;50.448;18.122;2023-02-28T08:42:13;11.40;;10.26;;;;;;;
62702;SPS30;66022;50.448;18.122;2023-02-28T08:46:30;10.52;;10.33;;;;;;;
62702;SPS30;66022;50.448;18.122;2023-02-28T08:50:41;10.52;;10.33;;;;;;;
62702;SPS30;66022;50.448;18.122;2023-02-28T08:54:55;10.52;;10.33;;;;;;;
62702;SPS30;66022;50.448;18.122;2023-02-28T08:59:09;10.45;;10.45;;;;;;;
62702;SPS30;66022;50.448;18.122;2023-02-28T09:03:23;10.45;;10.45;;;;;;;
62702;SPS30;66022;50.448;18.122;2023-02-28T09:07:37;9.38;;9.36;;;;;;;
62702;SPS30;66022;50.448;18.122;2023-02-28T09:11:51;9.38;;9.36;;;;;;;
62702;SPS30;66022;50.448;18.122;2023-02-28T09:16:05;10.29;;10.29;;;;;;;
62702;SPS30;66022;50.448;18.122;2023-02-28T09:20:19;10.29;;10.29;;;;;;;
62702;SPS30;66022;50.448;18.122;2023-02-28T09:24:33;10.29;;10.29;;;;;;;
62702;SPS30;66022;50.448;18.122;2023-02-28T09:28:47;12.32;;12.00;;;;;;;
62702;SPS30;66022;50.448;18.122;2023-02-28T09:33:01;12.32;;12.00;;;;;;;
62702;SPS30;66022;50.448;18.122;2023-02-28T09:37:15;15.38;;15.15;;;;;;;
62702;SPS30;66022;50.448;18.122;2023-02-28T09:41:32;15.38;;15.15;;;;;;;
62702;SPS30;66022;50.448;18.122;2023-02-28T09:45:46;13.38;;12.91;;;;;;;
62702;SPS30;66022;50.448;18.122;2023-02-28T09:49:58;13.38;;12.91;;;;;;;
62702;SPS30;66022;50.448;18.122;2023-02-28T09:54:15;13.38;;12.91;;;;;;;
62702;SPS30;66022;50.448;18.122;2023-02-28T09:58:33;12.43;;12.43;;;;;;;
62702;SPS30;66022;50.448;18.122;2023-02-28T10:02:41;12.43;;12.43;;;;;;;
62702;SPS30;66022;50.448;18.122;2023-02-28T10:06:53;13.13;;13.13;;;;;;;
62702;SPS30;66022;50.448;18.122;2023-02-28T10:11:07;13.13;;13.13;;;;;;;
62702;SPS30;66022;50.448;18.122;2023-02-28T10:15:22;13.13;;13.13;;;;;;;
62702;SPS30;66022;50.448;18.122;2023-02-28T10:23:49;13.15;;13.15;;;;;;;
62702;SPS30;66022;50.448;18.122;2023-02-28T10:32:18;14.03;;14.00;;;;;;;
62702;SPS30;66022;50.448;18.122;2023-02-28T10:36:32;15.80;;15.30;;;;;;;
62702;SPS30;66022;50.448;18.122;2023-02-28T10:40:45;15.80;;15.30;;;;;;;
62702;SPS30;66022;50.448;18.122;2023-02-28T10:53:31;16.77;;15.87;;;;;;;
62702;SPS30;66022;50.448;18.122;2023-02-28T10:57:41;18.90;;17.96;;;;;;;
62702;SPS30;66022;50.448;18.122;2023-02-28T11:01:55;18.90;;17.96;;;;;;;
62702;SPS30;66022;50.448;18.122;2023-02-28T11:10:24;16.61;;15.95;;;;;;;
62702;SPS30;66022;50.448;18.122;2023-02-28T11:14:46;16.61;;15.95;;;;;;;
62702;SPS30;66022;50.448;18.122;2023-02-28T11:18:52;16.84;;15.86;;;;;;;
62702;SPS30;66022;50.448;18.122;2023-02-28T11:23:05;16.84;;15.86;;;;;;;
62702;SPS30;66022;50.448;18.122;2023-02-28T11:31:33;13.66;;13.55;;;;;;;
62702;SPS30;66022;50.448;18.122;2023-02-28T11:35:48;13.79;;13.79;;;;;;;
62702;SPS30;66022;50.448;18.122;2023-02-28T11:40:02;13.79;;13.79;;;;;;;
62702;SPS30;66022;50.448;18.122;2023-02-28T11:57:01;13.70;;13.48;;;;;;;
62702;SPS30;66022;50.448;18.122;2023-02-28T12:26:39;17.05;;15.97;;;;;;;
62702;SPS30;66022;50.448;18.122;2023-02-28T12:39:23;16.34;;15.34;;;;;;;
62702;SPS30;66022;50.448;18.122;2023-02-28T12:47:46;15.84;;15.39;;;;;;;
62702;SPS30;66022;50.448;18.122;2023-02-28T12:52:00;15.84;;15.39;;;;;;;
62702;SPS30;66022;50.448;18.122;2023-02-28T13:00:29;14.66;;14.66;;;;;;;
62702;SPS30;66022;50.448;18.122;2023-02-28T13:17:23;15.98;;15.81;;;;;;;
62702;SPS30;66022;50.448;18.122;2023-02-28T13:21:42;15.98;;15.81;;;;;;;
62702;SPS30;66022;50.448;18.122;2023-02-28T13:25:52;17.61;;16.86;;;;;;;
62702;SPS30;66022;50.448;18.122;2023-02-28T13:34:19;17.61;;16.86;;;;;;;
62702;SPS30;66022;50.448;18.122;2023-02-28T13:38:42;16.06;;16.02;;;;;;;
62702;SPS30;66022;50.448;18.122;2023-02-28T13:42:48;16.06;;16.02;;;;;;;
62702;SPS30;66022;50.448;18.122;2023-02-28T13:59:47;15.65;;15.65;;;;;;;
62702;SPS30;66022;50.448;18.122;2023-02-28T14:08:16;21.52;;19.53;;;;;;;
62702;SPS30;66022;50.448;18.122;2023-02-28T14:16:40;17.07;;16.75;;;;;;;
62702;SPS30;66022;50.448;18.122;2023-02-28T14:20:58;17.07;;16.75;;;;;;;
62702;SPS30;66022;50.448;18.122;2023-02-28T14:37:50;17.49;;17.49;;;;;;;
62702;SPS30;66022;50.448;18.122;2023-02-28T14:42:24;17.49;;17.49;;;;;;;
62702;SPS30;66022;50.448;18.122;2023-02-28T14:46:18;36.47;;30.92;;;;;;;
62702;SPS30;66022;50.448;18.122;2023-02-28T14:50:35;36.47;;30.92;;;;;;;
62702;SPS30;66022;50.448;18.122;2023-02-28T14:54:46;36.47;;30.92;;;;;;;
62702;SPS30;66022;50.448;18.122;2023-02-28T14:59:00;22.15;;21.60;;;;;;;
62702;SPS30;66022;50.448;18.122;2023-02-28T15:03:25;22.15;;21.60;;;;;;;
62702;SPS30;66022;50.448;18.122;2023-02-28T15:07:27;21.55;;20.76;;;;;;;
62702;SPS30;66022;50.448;18.122;2023-02-28T15:11:45;21.55;;20.76;;;;;;;
62702;SPS30;66022;50.448;18.122;2023-02-28T15:20:13;21.60;;20.86;;;;;;;
62702;SPS30;66022;50.448;18.122;2023-02-28T15:28:38;19.90;;19.70;;;;;;;
62702;SPS30;66022;50.448;18.122;2023-02-28T15:33:02;19.90;;19.70;;;;;;;
62702;SPS30;66022;50.448;18.122;2023-02-28T15:45:35;32.73;;27.91;;;;;;;
62702;SPS30;66022;50.448;18.122;2023-02-28T15:54:04;32.73;;27.91;;;;;;;
62702;SPS30;66022;50.448;18.122;2023-02-28T15:58:16;24.15;;22.91;;;;;;;
62702;SPS30;66022;50.448;18.122;2023-02-28T16:02:31;24.15;;22.91;;;;;;;
62702;SPS30;66022;50.448;18.122;2023-02-28T16:06:44;18.43;;18.10;;;;;;;
62702;SPS30;66022;50.448;18.122;2023-02-28T16:10:58;18.43;;18.10;;;;;;;
62702;SPS30;66022;50.448;18.122;2023-02-28T16:19:26;20.03;;19.72;;;;;;;
62702;SPS30;66022;50.448;18.122;2023-02-28T16:23:40;20.03;;19.72;;;;;;;
62702;SPS30;66022;50.448;18.122;2023-02-28T16:27:54;79.09;;68.17;;;;;;;
62702;SPS30;66022;50.448;18.122;2023-02-28T16:32:10;79.09;;68.17;;;;;;;
62702;SPS30;66022;50.448;18.122;2023-02-28T16:36:22;41.52;;38.40;;;;;;;
62702;SPS30;66022;50.448;18.122;2023-02-28T16:40:36;41.52;;38.40;;;;;;;
62702;SPS30;66022;50.448;18.122;2023-02-28T16:44:50;41.52;;38.40;;;;;;;
62702;SPS30;66022;50.448;18.122;2023-02-28T16:49:04;36.61;;35.79;;;;;;;
62702;SPS30;66022;50.448;18.122;2023-02-28T16:53:18;36.61;;35.79;;;;;;;
62702;SPS30;66022;50.448;18.122;2023-02-28T16:57:32;35.84;;33.36;;;;;;;
62702;SPS30;66022;50.448;18.122;2023-02-28T17:01:46;35.84;;33.36;;;;;;;
62702;SPS30;66022;50.448;18.122;2023-02-28T17:06:00;67.26;;57.05;;;;;;;
62702;SPS30;66022;50.448;18.122;2023-02-28T17:10:15;67.26;;57.05;;;;;;;
62702;SPS30;66022;50.448;18.122;2023-02-28T17:14:28;67.26;;57.05;;;;;;;
62702;SPS30;66022;50.448;18.122;2023-02-28T17:18:42;159.85;;159.45;;;;;;;
62702;SPS30;66022;50.448;18.122;2023-02-28T17:22:56;159.85;;159.45;;;;;;;
62702;SPS30;66022;50.448;18.122;2023-02-28T17:27:11;58.22;;58.22;;;;;;;
62702;SPS30;66022;50.448;18.122;2023-02-28T17:31:24;58.22;;58.22;;;;;;;
62702;SPS30;66022;50.448;18.122;2023-02-28T17:35:38;41.59;;41.14;;;;;;;
62702;SPS30;66022;50.448;18.122;2023-02-28T17:39:52;41.59;;41.14;;;;;;;
62702;SPS30;66022;50.448;18.122;2023-02-28T17:44:06;41.59;;41.14;;;;;;;
62702;SPS30;66022;50.448;18.122;2023-02-28T17:48:20;75.64;;72.46;;;;;;;
62702;SPS30;66022;50.448;18.122;2023-02-28T17:52:34;75.64;;72.46;;;;;;;
62702;SPS30;66022;50.448;18.122;2023-02-28T17:56:48;59.89;;56.88;;;;;;;
62702;SPS30;66022;50.448;18.122;2023-02-28T18:01:02;59.89;;56.88;;;;;;;
62702;SPS30;66022;50.448;18.122;2023-02-28T18:05:16;59.89;;56.88;;;;;;;
62702;SPS30;66022;50.448;18.122;2023-02-28T18:09:30;179.17;;169.17;;;;;;;
62702;SPS30;66022;50.448;18.122;2023-02-28T18:13:44;179.17;;169.17;;;;;;;
62702;SPS30;66022;50.448;18.122;2023-02-28T18:17:58;61.90;;60.31;;;;;;;
62702;SPS30;66022;50.448;18.122;2023-02-28T18:22:12;61.90;;60.31;;;;;;;
62702;SPS30;66022;50.448;18.122;2023-02-28T18:26:26;95.77;;91.55;;;;;;;
62702;SPS30;66022;50.448;18.122;2023-02-28T18:30:40;95.77;;91.55;;;;;;;
62702;SPS30;66022;50.448;18.122;2023-02-28T18:39:08;79.77;;72.23;;;;;;;
62702;SPS30;66022;50.448;18.122;2023-02-28T18:43:22;79.77;;72.23;;;;;;;
62702;SPS30;66022;50.448;18.122;2023-02-28T18:47:37;52.12;;46.57;;;;;;;
62702;SPS30;66022;50.448;18.122;2023-02-28T18:51:50;52.12;;46.57;;;;;;;
62702;SPS30;66022;50.448;18.122;2023-02-28T18:56:07;50.79;;49.39;;;;;;;
62702;SPS30;66022;50.448;18.122;2023-02-28T19:00:18;50.79;;49.39;;;;;;;
62702;SPS30;66022;50.448;18.122;2023-02-28T19:04:32;50.79;;49.39;;;;;;;
62702;SPS30;66022;50.448;18.122;2023-02-28T19:08:51;69.88;;64.44;;;;;;;
62702;SPS30;66022;50.448;18.122;2023-02-28T19:13:00;69.88;;64.44;;;;;;;
62702;SPS30;66022;50.448;18.122;2023-02-28T19:17:15;94.45;;81.90;;;;;;;
62702;SPS30;66022;50.448;18.122;2023-02-28T19:21:28;94.45;;81.90;;;;;;;
62702;SPS30;66022;50.448;18.122;2023-02-28T19:25:42;46.07;;42.61;;;;;;;
62702;SPS30;66022;50.448;18.122;2023-02-28T19:30:03;46.07;;42.61;;;;;;;
62702;SPS30;66022;50.448;18.122;2023-02-28T19:34:13;46.07;;42.61;;;;;;;
62702;SPS30;66022;50.448;18.122;2023-02-28T19:38:25;37.24;;36.79;;;;;;;
62702;SPS30;66022;50.448;18.122;2023-02-28T19:42:38;37.24;;36.79;;;;;;;
62702;SPS30;66022;50.448;18.122;2023-02-28T19:46:52;46.86;;42.82;;;;;;;
62702;SPS30;66022;50.448;18.122;2023-02-28T19:51:07;46.86;;42.82;;;;;;;
62702;SPS30;66022;50.448;18.122;2023-02-28T19:55:20;46.86;;42.82;;;;;;;
62702;SPS30;66022;50.448;18.122;2023-02-28T19:59:34;40.71;;39.81;;;;;;;
62702;SPS30;66022;50.448;18.122;2023-02-28T20:03:48;40.71;;39.81;;;;;;;
62702;SPS30;66022;50.448;18.122;2023-02-28T20:08:02;42.25;;40.69;;;;;;;
62702;SPS30;66022;50.448;18.122;2023-02-28T20:12:16;42.25;;40.69;;;;;;;
62702;SPS30;66022;50.448;18.122;2023-02-28T20:16:30;47.23;;44.39;;;;;;;
62702;SPS30;66022;50.448;18.122;2023-02-28T20:20:44;47.23;;44.39;;;;;;;
62702;SPS30;66022;50.448;18.122;2023-02-28T20:24:58;47.23;;44.39;;;;;;;
62702;SPS30;66022;50.448;18.122;2023-02-28T20:29:12;54.52;;50.48;;;;;;;
62702;SPS30;66022;50.448;18.122;2023-02-28T20:33:26;54.52;;50.48;;;;;;;
62702;SPS30;66022;50.448;18.122;2023-02-28T20:37:40;46.45;;45.14;;;;;;;
62702;SPS30;66022;50.448;18.122;2023-02-28T20:41:54;46.45;;45.14;;;;;;;
62702;SPS30;66022;50.448;18.122;2023-02-28T20:46:08;50.98;;47.37;;;;;;;
62702;SPS30;66022;50.448;18.122;2023-02-28T20:50:22;50.98;;47.37;;;;;;;
62702;SPS30;66022;50.448;18.122;2023-02-28T20:54:36;50.98;;47.37;;;;;;;
62702;SPS30;66022;50.448;18.122;2023-02-28T20:58:50;54.81;;50.55;;;;;;;
62702;SPS30;66022;50.448;18.122;2023-02-28T21:03:04;54.81;;50.55;;;;;;;
62702;SPS30;66022;50.448;18.122;2023-02-28T21:07:18;52.21;;46.31;;;;;;;
62702;SPS30;66022;50.448;18.122;2023-02-28T21:11:33;52.21;;46.31;;;;;;;
62702;SPS30;66022;50.448;18.122;2023-02-28T21:15:46;52.01;;47.79;;;;;;;
62702;SPS30;66022;50.448;18.122;2023-02-28T21:20:03;52.01;;47.79;;;;;;;
62702;SPS30;66022;50.448;18.122;2023-02-28T21:24:14;52.01;;47.79;;;;;;;
62702;SPS30;66022;50.448;18.122;2023-02-28T21:28:28;81.17;;66.94;;;;;;;
62702;SPS30;66022;50.448;18.122;2023-02-28T21:32:42;81.17;;66.94;;;;;;;
62702;SPS30;66022;50.448;18.122;2023-02-28T21:36:56;75.72;;64.07;;;;;;;
62702;SPS30;66022;50.448;18.122;2023-02-28T21:41:11;75.72;;64.07;;;;;;;
62702;SPS30;66022;50.448;18.122;2023-02-28T21:45:24;75.72;;64.07;;;;;;;
62702;SPS30;66022;50.448;18.122;2023-02-28T21:49:38;86.00;;72.87;;;;;;;
62702;SPS30;66022;50.448;18.122;2023-02-28T21:53:52;86.00;;72.87;;;;;;;
62702;SPS30;66022;50.448;18.122;2023-02-28T21:58:06;54.05;;49.59;;;;;;;
62702;SPS30;66022;50.448;18.122;2023-02-28T22:02:20;54.05;;49.59;;;;;;;
62702;SPS30;66022;50.448;18.122;2023-02-28T22:06:35;50.77;;47.40;;;;;;;
62702;SPS30;66022;50.448;18.122;2023-02-28T22:10:48;50.77;;47.40;;;;;;;
62702;SPS30;66022;50.448;18.122;2023-02-28T22:15:02;50.77;;47.40;;;;;;;
62702;SPS30;66022;50.448;18.122;2023-02-28T22:19:16;62.06;;56.09;;;;;;;
62702;SPS30;66022;50.448;18.122;2023-02-28T22:23:30;62.06;;56.09;;;;;;;
62702;SPS30;66022;50.448;18.122;2023-02-28T22:27:44;70.29;;62.55;;;;;;;
62702;SPS30;66022;50.448;18.122;2023-02-28T22:31:58;70.29;;62.55;;;;;;;
62702;SPS30;66022;50.448;18.122;2023-02-28T22:36:14;74.04;;65.53;;;;;;;
62702;SPS30;66022;50.448;18.122;2023-02-28T22:40:26;74.04;;65.53;;;;;;;
62702;SPS30;66022;50.448;18.122;2023-02-28T22:44:40;74.04;;65.53;;;;;;;
62702;SPS30;66022;50.448;18.122;2023-02-28T22:48:54;61.18;;55.88;;;;;;;
62702;SPS30;66022;50.448;18.122;2023-02-28T22:53:08;61.18;;55.88;;;;;;;
62702;SPS30;66022;50.448;18.122;2023-02-28T22:57:22;61.25;;56.06;;;;;;;
62702;SPS30;66022;50.448;18.122;2023-02-28T23:01:36;61.25;;56.06;;;;;;;
62702;SPS30;66022;50.448;18.122;2023-02-28T23:05:50;48.38;;47.59;;;;;;;
62702;SPS30;66022;50.448;18.122;2023-02-28T23:10:05;48.38;;47.59;;;;;;;
62702;SPS30;66022;50.448;18.122;2023-02-28T23:14:18;48.38;;47.59;;;;;;;
62702;SPS30;66022;50.448;18.122;2023-02-28T23:18:32;57.99;;53.15;;;;;;;
62702;SPS30;66022;50.448;18.122;2023-02-28T23:22:46;57.99;;53.15;;;;;;;
62702;SPS30;66022;50.448;18.122;2023-02-28T23:27:01;52.83;;49.04;;;;;;;
62702;SPS30;66022;50.448;18.122;2023-02-28T23:31:14;52.83;;49.04;;;;;;;
62702;SPS30;66022;50.448;18.122;2023-02-28T23:35:28;52.83;;49.04;;;;;;;
62702;SPS30;66022;50.448;18.122;2023-02-28T23:39:42;53.75;;47.99;;;;;;;
62702;SPS30;66022;50.448;18.122;2023-02-28T23:43:56;53.75;;47.99;;;;;;;
62702;SPS30;66022;50.448;18.122;2023-02-28T23:48:10;39.00;;37.04;;;;;;;
62702;SPS30;66022;50.448;18.122;2023-02-28T23:52:24;39.00;;37.04;;;;;;;
62702;SPS30;66022;50.448;18.122;2023-02-28T23:56:43;35.52;;33.64;;;;;;;
